Time;durP1;ratioP1;P1;durP2;ratioP2;P2;SDS_P1;SDS_P2;PMS_P1;PMS_P2;Temp;Humidity;BMP_temperature;BMP_pressure;BME280_temperature;BME280_humidity;BME280_pressure;Samples;Min_cycle;Max_cycle;Signal;HPM_P1;HPM_P2
2021/03/01 00:00:12;;;;;;;1.40;1.00;;;23.20;48.70;;;;;;5072843;28;20092;-44
2021/03/01 00:02:39;;;;;;;0.73;0.73;;;23.20;48.70;;;;;;5072890;28;20076;-45
2021/03/01 00:05:08;;;;;;;1.38;1.05;;;23.20;48.70;;;;;;5071932;28;20117;-45
2021/03/01 00:07:35;;;;;;;1.17;1.05;;;23.20;48.80;;;;;;5072389;28;20066;-48
2021/03/01 00:10:03;;;;;;;0.73;0.73;;;23.20;48.70;;;;;;5073132;28;20102;-44
2021/03/01 00:12:30;;;;;;;1.00;0.90;;;23.20;48.70;;;;;;5072616;28;20044;-44
2021/03/01 00:14:56;;;;;;;1.20;0.90;;;23.20;48.70;;;;;;5073060;28;20071;-45
2021/03/01 00:17:23;;;;;;;1.25;1.15;;;23.20;48.70;;;;;;5072721;28;20460;-46
2021/03/01 00:19:50;;;;;;;1.13;0.90;;;23.20;48.80;;;;;;5072851;28;20051;-44
2021/03/01 00:22:16;;;;;;;1.48;1.17;;;23.20;48.80;;;;;;5072078;28;20052;-45
2021/03/01 00:24:43;;;;;;;1.38;0.95;;;23.20;48.80;;;;;;5072883;28;20465;-47
2021/03/01 00:27:10;;;;;;;1.15;1.02;;;23.20;48.80;;;;;;5072076;28;20079;-45
2021/03/01 00:29:36;;;;;;;1.10;1.00;;;23.20;48.70;;;;;;5072682;28;20522;-49
2021/03/01 00:32:03;;;;;;;0.90;0.90;;;23.20;48.70;;;;;;5071629;28;20044;-45
2021/03/01 00:34:30;;;;;;;1.13;1.00;;;23.10;48.70;;;;;;5072751;28;20056;-49
2021/03/01 00:36:57;;;;;;;1.17;0.98;;;23.20;48.80;;;;;;5072190;28;20053;-44
2021/03/01 00:39:23;;;;;;;0.80;0.70;;;23.10;48.70;;;;;;5072018;28;20048;-47
2021/03/01 00:41:50;;;;;;;1.10;1.00;;;23.20;48.80;;;;;;5071307;28;20106;-45
2021/03/01 00:44:17;;;;;;;1.15;0.90;;;23.20;48.80;;;;;;5072621;28;20044;-44
2021/03/01 00:46:44;;;;;;;1.48;0.90;;;23.10;48.70;;;;;;5072376;28;20086;-44
2021/03/01 00:49:11;;;;;;;1.00;0.90;;;23.10;48.70;;;;;;5072548;28;20047;-46
2021/03/01 00:51:38;;;;;;;1.40;1.00;;;23.20;48.80;;;;;;5072316;28;20080;-46
2021/03/01 00:54:05;;;;;;;0.98;0.80;;;23.10;48.70;;;;;;5071880;28;20438;-44
2021/03/01 00:56:32;;;;;;;1.13;0.98;;;23.10;48.70;;;;;;5071911;28;20056;-45
2021/03/01 00:58:59;;;;;;;1.05;0.90;;;23.10;48.70;;;;;;5072213;28;20048;-44
2021/03/01 01:01:25;;;;;;;1.20;0.90;;;23.10;48.70;;;;;;5072053;28;20665;-46
2021/03/01 01:03:52;;;;;;;0.80;0.80;;;23.10;48.70;;;;;;5072113;28;20044;-46
2021/03/01 01:06:19;;;;;;;1.13;0.95;;;23.10;48.70;;;;;;5072450;28;20455;-44
2021/03/01 01:08:46;;;;;;;0.90;0.80;;;23.10;48.70;;;;;;5071615;28;20098;-44
2021/03/01 01:11:13;;;;;;;0.73;0.73;;;23.10;48.70;;;;;;5072352;28;20083;-44
2021/03/01 01:13:39;;;;;;;1.25;0.98;;;23.10;48.70;;;;;;5071943;28;20133;-46
2021/03/01 01:16:06;;;;;;;1.52;1.10;;;23.10;48.70;;;;;;5072015;28;20393;-44
2021/03/01 01:18:33;;;;;;;1.42;1.00;;;23.10;48.70;;;;;;5072191;28;20385;-47
2021/03/01 01:21:00;;;;;;;1.10;1.00;;;23.10;48.70;;;;;;5072018;28;20131;-44
2021/03/01 01:23:27;;;;;;;1.45;1.10;;;23.10;48.70;;;;;;5071165;28;20048;-45
2021/03/01 01:25:53;;;;;;;1.10;1.00;;;23.10;48.70;;;;;;5072324;28;20052;-45
2021/03/01 01:28:20;;;;;;;1.40;1.10;;;23.10;48.70;;;;;;5071497;28;20048;-45
2021/03/01 01:30:47;;;;;;;1.23;1.00;;;23.10;48.80;;;;;;5072038;28;20480;-48
2021/03/01 01:33:13;;;;;;;1.48;1.20;;;23.10;48.70;;;;;;5072168;28;20044;-44
2021/03/01 01:35:40;;;;;;;1.25;1.05;;;23.10;48.70;;;;;;5070665;28;20230;-49
2021/03/01 01:38:08;;;;;;;1.00;0.90;;;23.10;48.70;;;;;;5070969;28;20143;-44
2021/03/01 01:40:36;;;;;;;1.10;1.00;;;23.10;48.70;;;;;;5072115;28;20135;-44
2021/03/01 01:43:04;;;;;;;1.17;1.08;;;23.00;48.70;;;;;;5071516;28;20053;-45
2021/03/01 01:45:30;;;;;;;1.30;1.00;;;23.10;48.80;;;;;;5072027;28;20052;-48
2021/03/01 01:47:58;;;;;;;0.90;0.85;;;23.10;48.80;;;;;;5071649;28;20080;-47
2021/03/01 01:50:28;;;;;;;1.50;1.08;;;23.00;48.70;;;;;;5072044;28;20119;-46
2021/03/01 01:52:56;;;;;;;1.08;0.98;;;23.00;48.70;;;;;;5072779;28;20048;-46
2021/03/01 01:55:24;;;;;;;1.20;1.00;;;23.00;48.70;;;;;;5074972;28;20080;-44
2021/03/01 01:57:51;;;;;;;1.42;1.20;;;23.00;48.70;;;;;;5075593;28;20048;-46
2021/03/01 02:03:00;;;;;;;1.20;1.10;;;23.00;48.70;;;;;;5075213;28;20041;-45
2021/03/01 02:05:28;;;;;;;1.10;1.00;;;23.00;48.70;;;;;;5075586;28;20048;-44
2021/03/01 02:08:04;;;;;;;1.42;1.00;;;23.10;48.80;;;;;;5075471;28;20048;-47
2021/03/01 02:10:55;;;;;;;1.20;1.05;;;23.00;48.70;;;;;;5074727;28;20101;-46
2021/03/01 02:13:31;;;;;;;1.00;0.90;;;23.00;48.70;;;;;;5073763;28;20048;-44
2021/03/01 02:16:14;;;;;;;1.25;1.05;;;23.00;48.70;;;;;;5074583;28;20048;-44
2021/03/01 02:18:41;;;;;;;1.25;1.15;;;23.00;48.70;;;;;;5074912;28;20049;-44
2021/03/01 02:21:10;;;;;;;1.35;1.25;;;23.00;48.70;;;;;;5075183;28;20048;-46
2021/03/01 02:23:40;;;;;;;1.42;1.20;;;23.00;48.70;;;;;;5074338;28;20045;-44
2021/03/01 02:26:24;;;;;;;1.15;1.05;;;23.00;48.70;;;;;;5074822;28;20084;-48
2021/03/01 02:28:54;;;;;;;1.53;1.20;;;23.00;48.70;;;;;;5074880;28;20048;-45
2021/03/01 02:31:24;;;;;;;1.10;1.00;;;23.00;48.70;;;;;;5073064;28;20294;-44
2021/03/01 02:33:53;;;;;;;1.25;1.00;;;23.00;48.70;;;;;;5074695;28;20545;-44
2021/03/01 02:36:35;;;;;;;1.13;1.02;;;23.00;49.30;;;;;;5074703;28;20722;-45
2021/03/01 02:39:05;;;;;;;1.30;1.00;;;23.00;48.70;;;;;;5073956;28;20138;-44
2021/03/01 02:41:33;;;;;;;1.10;1.00;;;23.00;48.70;;;;;;5074855;28;20075;-44
2021/03/01 02:44:01;;;;;;;1.38;1.10;;;23.00;48.70;;;;;;5074437;28;20052;-44
2021/03/01 02:46:29;;;;;;;1.30;1.20;;;23.00;48.70;;;;;;5074594;28;20044;-45
2021/03/01 02:48:57;;;;;;;1.15;1.05;;;23.00;48.70;;;;;;5074375;28;20610;-44
2021/03/01 02:51:25;;;;;;;1.30;1.20;;;23.00;48.70;;;;;;5074680;28;20055;-43
2021/03/01 02:53:52;;;;;;;1.35;1.10;;;23.00;48.70;;;;;;5073646;28;20048;-46
2021/03/01 02:56:20;;;;;;;1.20;0.98;;;23.00;48.70;;;;;;5074613;28;20049;-44
2021/03/01 02:58:49;;;;;;;1.10;0.80;;;23.00;48.70;;;;;;5074524;28;20474;-45
2021/03/01 03:01:18;;;;;;;1.40;1.05;;;23.00;48.70;;;;;;5074293;28;20071;-46
2021/03/01 03:03:48;;;;;;;0.93;0.80;;;23.00;48.70;;;;;;5074266;28;20083;-45
2021/03/01 03:06:18;;;;;;;1.40;1.23;;;23.00;48.70;;;;;;5073709;28;20098;-44
2021/03/01 03:08:46;;;;;;;1.10;1.00;;;23.00;48.70;;;;;;5074199;28;20098;-45
2021/03/01 03:11:16;;;;;;;1.30;1.10;;;23.00;48.70;;;;;;5073587;28;20468;-44
2021/03/01 03:13:46;;;;;;;1.35;1.25;;;23.00;48.70;;;;;;5073912;28;20053;-44
2021/03/01 03:16:14;;;;;;;1.50;1.13;;;23.00;48.70;;;;;;5073871;28;20139;-44
2021/03/01 03:18:43;;;;;;;1.20;1.00;;;23.00;48.70;;;;;;5073736;28;20048;-44
2021/03/01 03:21:12;;;;;;;1.15;0.90;;;23.00;48.70;;;;;;5074045;28;20052;-45
2021/03/01 03:23:39;;;;;;;1.45;1.10;;;23.00;48.70;;;;;;5073020;28;20045;-45
2021/03/01 03:26:06;;;;;;;1.50;1.15;;;23.00;48.70;;;;;;5073238;28;20074;-44
2021/03/01 03:28:33;;;;;;;1.10;1.00;;;23.00;48.70;;;;;;5073616;28;20045;-44
2021/03/01 03:31:00;;;;;;;1.77;1.08;;;23.00;48.70;;;;;;5072196;28;20088;-44
2021/03/01 03:33:26;;;;;;;1.88;1.33;;;23.00;48.70;;;;;;5073789;28;20076;-44
2021/03/01 03:35:54;;;;;;;1.25;1.00;;;22.90;48.70;;;;;;5073459;28;20080;-45
2021/03/01 03:38:22;;;;;;;1.10;0.93;;;22.90;48.60;;;;;;5072968;28;20071;-45
2021/03/01 03:40:53;;;;;;;1.20;1.10;;;23.00;48.70;;;;;;5072534;28;20048;-46
2021/03/01 03:43:21;;;;;;;1.10;1.00;;;23.00;48.70;;;;;;5073135;28;20048;-44
2021/03/01 03:45:51;;;;;;;1.63;1.25;;;22.90;48.60;;;;;;5073227;28;20048;-45
2021/03/01 03:48:21;;;;;;;1.35;1.25;;;22.90;48.70;;;;;;5073154;28;20048;-44
2021/03/01 03:51:04;;;;;;;1.58;1.33;;;22.90;48.60;;;;;;5073104;28;20098;-44
2021/03/01 03:53:34;;;;;;;1.20;1.10;;;22.90;48.60;;;;;;5073078;28;20457;-46
2021/03/01 03:56:02;;;;;;;1.17;1.02;;;22.90;48.60;;;;;;5072667;28;20106;-44
2021/03/01 03:58:32;;;;;;;1.50;1.35;;;22.90;48.70;;;;;;5073074;28;20079;-44
2021/03/01 04:01:01;;;;;;;1.10;0.90;;;22.90;48.70;;;;;;5072840;28;20523;-44
2021/03/01 04:03:31;;;;;;;1.25;0.93;;;22.90;48.60;;;;;;5071992;28;20416;-45
2021/03/01 04:06:00;;;;;;;1.15;1.05;;;22.90;48.60;;;;;;5072902;28;20102;-44
2021/03/01 04:08:30;;;;;;;1.33;0.90;;;22.90;48.70;;;;;;5072712;28;20412;-45
2021/03/01 04:10:58;;;;;;;1.50;1.10;;;22.90;48.60;;;;;;5072084;28;20072;-44
2021/03/01 04:13:28;;;;;;;1.45;1.10;;;22.90;48.60;;;;;;5071607;28;20063;-45
2021/03/01 04:15:55;;;;;;;1.38;1.20;;;22.90;48.60;;;;;;5072257;28;20549;-46
2021/03/01 04:18:27;;;;;;;1.30;0.98;;;22.90;48.70;;;;;;5072304;28;20557;-45
2021/03/01 04:21:01;;;;;;;1.20;0.93;;;22.90;48.60;;;;;;5072711;28;20048;-45
2021/03/01 04:23:30;;;;;;;1.52;0.93;;;22.90;48.60;;;;;;5072586;28;20048;-45
2021/03/01 04:25:58;;;;;;;1.35;1.00;;;22.90;48.60;;;;;;5071725;28;20105;-44
2021/03/01 04:28:25;;;;;;;1.58;1.17;;;22.90;48.60;;;;;;5072845;28;20040;-44
2021/03/01 04:30:52;;;;;;;1.52;1.10;;;22.90;48.70;;;;;;5072357;28;20504;-45
2021/03/01 04:33:22;;;;;;;1.50;1.27;;;22.90;48.60;;;;;;5072506;28;20044;-46
2021/03/01 04:35:54;;;;;;;1.27;1.00;;;22.90;48.60;;;;;;5072729;28;20044;-45
2021/03/01 04:38:21;;;;;;;1.20;1.10;;;22.90;48.60;;;;;;5072280;28;20056;-44
2021/03/01 04:40:51;;;;;;;1.45;1.20;;;22.90;48.60;;;;;;5071039;28;20071;-44
2021/03/01 04:43:20;;;;;;;1.65;1.17;;;22.90;48.70;;;;;;5072783;28;20048;-47
2021/03/01 04:45:51;;;;;;;1.48;1.30;;;22.90;48.70;;;;;;5072598;28;20488;-45
2021/03/01 04:48:18;;;;;;;1.25;1.10;;;22.90;48.60;;;;;;5072222;28;20086;-46
2021/03/01 04:50:52;;;;;;;1.48;1.30;;;22.90;48.60;;;;;;5072573;28;20052;-44
2021/03/01 04:53:19;;;;;;;1.35;1.10;;;22.90;48.60;;;;;;5071113;28;20053;-47
2021/03/01 04:55:47;;;;;;;1.60;1.38;;;22.80;48.50;;;;;;5071510;28;20056;-49
2021/03/01 04:58:17;;;;;;;1.58;1.08;;;22.90;48.70;;;;;;5072293;28;20167;-46
2021/03/01 05:00:45;;;;;;;1.42;1.27;;;22.80;48.50;;;;;;5072313;28;20499;-50
2021/03/01 05:03:12;;;;;;;1.20;1.10;;;22.80;48.50;;;;;;5072404;28;20185;-48
2021/03/01 05:05:41;;;;;;;1.77;1.30;;;22.90;48.60;;;;;;5072432;28;20076;-44
2021/03/01 05:08:15;;;;;;;1.17;1.08;;;22.80;48.50;;;;;;5072324;28;20102;-44
2021/03/01 05:10:44;;;;;;;1.30;1.20;;;22.80;48.50;;;;;;5070127;28;20459;-45
2021/03/01 05:13:10;;;;;;;1.40;1.00;;;22.80;48.50;;;;;;5070638;28;20080;-46
2021/03/01 05:15:37;;;;;;;1.30;1.20;;;22.80;48.50;;;;;;5072333;28;20052;-45
2021/03/01 05:18:05;;;;;;;1.52;0.95;;;22.80;48.50;;;;;;5071019;28;20056;-45
2021/03/01 05:20:31;;;;;;;1.40;1.20;;;22.80;48.50;;;;;;5071171;28;20523;-45
2021/03/01 05:22:58;;;;;;;1.48;1.35;;;22.80;48.50;;;;;;5072198;28;20076;-44
2021/03/01 05:25:25;;;;;;;1.30;1.17;;;22.80;48.60;;;;;;5071505;28;20415;-47
2021/03/01 05:27:52;;;;;;;1.70;1.40;;;22.80;48.50;;;;;;5071484;28;20092;-45
2021/03/01 05:30:20;;;;;;;1.35;1.25;;;22.80;48.50;;;;;;5075760;28;20044;-44
2021/03/01 05:32:46;;;;;;;1.50;1.23;;;22.90;48.60;;;;;;5076169;28;20057;-44
2021/03/01 05:35:13;;;;;;;1.52;1.42;;;22.80;48.50;;;;;;5074546;28;20080;-45
2021/03/01 05:37:40;;;;;;;1.17;1.08;;;22.80;48.50;;;;;;5075629;28;20139;-45
2021/03/01 05:40:07;;;;;;;1.48;1.23;;;22.80;48.50;;;;;;5074668;28;20492;-46
2021/03/01 05:42:37;;;;;;;1.20;1.10;;;22.80;48.50;;;;;;5073170;28;20052;-46
2021/03/01 05:45:06;;;;;;;1.33;1.08;;;22.80;48.50;;;;;;5075860;28;20048;-46
2021/03/01 05:47:35;;;;;;;1.67;1.10;;;22.80;48.50;;;;;;5075594;28;20071;-48
2021/03/01 05:50:08;;;;;;;1.80;1.25;;;22.90;48.60;;;;;;5075774;28;20048;-44
2021/03/01 05:52:36;;;;;;;1.67;1.40;;;22.80;48.50;;;;;;5075463;28;20048;-45
2021/03/01 05:55:05;;;;;;;1.52;1.35;;;22.80;48.50;;;;;;5075368;28;20080;-44
2021/03/01 05:57:33;;;;;;;1.40;1.20;;;22.80;48.50;;;;;;5074305;28;20123;-44
2021/03/01 06:00:01;;;;;;;1.67;1.30;;;22.80;48.50;;;;;;5075070;28;20066;-44
2021/03/01 06:02:29;;;;;;;1.88;1.30;;;22.80;48.50;;;;;;5075539;28;20057;-44
2021/03/01 06:04:55;;;;;;;1.52;1.15;;;22.80;48.50;;;;;;5075156;28;20048;-44
2021/03/01 06:07:22;;;;;;;1.58;1.15;;;22.80;48.50;;;;;;5074053;28;20049;-44
2021/03/01 06:09:48;;;;;;;1.67;1.30;;;22.90;48.60;;;;;;5075414;28;20421;-46
2021/03/01 06:12:15;;;;;;;1.20;1.10;;;22.80;48.50;;;;;;5056194;28;20065;-44
2021/03/01 06:14:42;;;;;;;1.77;1.33;;;22.80;48.50;;;;;;5075258;28;20444;-45
2021/03/01 06:17:09;;;;;;;1.35;1.20;;;22.80;48.50;;;;;;5075313;28;20095;-45
2021/03/01 06:20:08;;;;;;;1.42;1.25;;;22.80;48.50;;;;;;5074835;28;20147;-45
2021/03/01 06:22:43;;;;;;;1.10;1.00;;;22.80;48.50;;;;;;5032396;28;20049;-45
2021/03/01 06:25:17;;;;;;;1.48;1.30;;;22.80;48.50;;;;;;5032583;28;20124;-44
2021/03/01 06:27:46;;;;;;;;;;;22.80;48.50;;;;;;5031703;28;20152;-47
2021/03/01 06:30:13;;;;;;;1.75;1.17;;;22.80;48.50;;;;;;5032318;28;19921;-44
2021/03/01 06:32:40;;;;;;;1.60;1.40;;;22.80;48.50;;;;;;5032516;28;20054;-45
2021/03/01 06:35:28;;;;;;;1.48;1.23;;;22.80;48.50;;;;;;5032501;28;20049;-46
2021/03/01 06:38:15;;;;;;;1.70;1.27;;;22.80;48.50;;;;;;5032091;28;20057;-46
2021/03/01 06:40:43;;;;;;;1.95;1.40;;;22.80;48.50;;;;;;5031377;28;20115;-45
2021/03/01 06:43:14;;;;;;;1.58;1.20;;;22.80;48.50;;;;;;5023817;28;20081;-44
2021/03/01 06:45:41;;;;;;;1.52;1.23;;;22.80;48.50;;;;;;5012469;28;20041;-45
2021/03/01 06:48:09;;;;;;;1.60;1.40;;;22.80;48.50;;;;;;5012240;28;20536;-46
2021/03/01 06:50:43;;;;;;;1.40;1.25;;;22.80;48.50;;;;;;5012275;28;20053;-46
2021/03/01 06:53:11;;;;;;;1.60;1.30;;;22.80;48.50;;;;;;5012197;28;20049;-44
2021/03/01 06:55:38;;;;;;;1.42;1.10;;;22.80;48.50;;;;;;5012359;28;20482;-46
2021/03/01 06:58:17;;;;;;;1.40;1.08;;;22.80;48.50;;;;;;5027621;28;20040;-44
2021/03/01 07:00:44;;;;;;;1.73;1.27;;;22.80;48.50;;;;;;5054282;28;20076;-44
2021/03/01 07:03:40;;;;;;;1.13;1.02;;;22.80;48.50;;;;;;5054393;28;20106;-46
2021/03/01 07:06:08;;;;;;;1.60;1.40;;;22.80;48.50;;;;;;5052566;28;20052;-44
2021/03/01 07:08:48;;;;;;;1.27;1.13;;;22.80;48.50;;;;;;5054281;28;20075;-44
2021/03/01 07:11:33;;;;;;;1.17;1.08;;;22.80;48.50;;;;;;5054255;28;20140;-44
2021/03/01 07:13:59;;;;;;;1.30;1.08;;;22.80;48.50;;;;;;5063403;28;20557;-45
2021/03/01 07:16:26;;;;;;;1.38;1.25;;;22.80;48.50;;;;;;5073834;28;20048;-45
2021/03/01 07:18:54;;;;;;;1.40;1.20;;;22.80;48.50;;;;;;5072756;28;20044;-44
2021/03/01 07:21:22;;;;;;;1.58;1.35;;;22.80;48.50;;;;;;5073707;28;20102;-45
2021/03/01 07:23:49;;;;;;;1.85;1.30;;;22.90;48.60;;;;;;5073615;28;20051;-45
2021/03/01 07:26:17;;;;;;;1.42;1.20;;;22.80;48.50;;;;;;5073414;28;20101;-47
2021/03/01 07:29:00;;;;;;;1.27;1.17;;;22.80;48.50;;;;;;5072214;28;20048;-45
2021/03/01 07:31:32;;;;;;;1.63;1.30;;;22.90;48.50;;;;;;5072504;28;20044;-47
2021/03/01 07:34:03;;;;;;;1.35;1.17;;;22.80;48.50;;;;;;5073979;28;20447;-45
2021/03/01 07:36:31;;;;;;;1.50;1.17;;;22.80;48.50;;;;;;5073568;28;20053;-43
2021/03/01 07:39:04;;;;;;;1.52;1.42;;;22.80;48.50;;;;;;5073421;28;20056;-45
2021/03/01 07:41:31;;;;;;;1.48;1.30;;;22.90;48.50;;;;;;5073470;28;20162;-44
2021/03/01 07:43:58;;;;;;;1.40;1.30;;;22.80;48.50;;;;;;5070973;28;20508;-44
2021/03/01 07:46:33;;;;;;;1.15;1.05;;;22.80;48.40;;;;;;5073160;28;20045;-44
2021/03/01 07:49:01;;;;;;;1.23;1.10;;;22.90;48.50;;;;;;5073102;28;20055;-45
2021/03/01 07:51:49;;;;;;;1.95;1.50;;;22.90;48.50;;;;;;5073015;28;20536;-45
2021/03/01 07:54:17;;;;;;;1.55;1.23;;;22.90;48.50;;;;;;5073457;28;20110;-45
2021/03/01 07:56:48;;;;;;;1.50;1.30;;;22.90;48.50;;;;;;5073058;28;20561;-48
2021/03/01 07:59:23;;;;;;;1.52;1.20;;;22.90;48.50;;;;;;5073123;28;20075;-46
2021/03/01 08:02:08;;;;;;;1.60;1.27;;;22.90;48.50;;;;;;5072755;28;20056;-44
2021/03/01 08:04:36;;;;;;;1.60;1.35;;;22.90;48.50;;;;;;5072802;28;20459;-46
2021/03/01 08:07:03;;;;;;;1.40;1.27;;;22.90;48.50;;;;;;5071607;28;20084;-48
2021/03/01 08:09:47;;;;;;;1.60;1.27;;;22.90;48.50;;;;;;5072812;28;20102;-44
2021/03/01 08:12:29;;;;;;;1.63;1.20;;;22.90;48.50;;;;;;5072236;28;20098;-45
2021/03/01 08:15:04;;;;;;;1.65;1.45;;;22.90;48.50;;;;;;5072539;28;20496;-46
2021/03/01 08:17:39;;;;;;;1.45;1.15;;;22.90;48.50;;;;;;5071787;28;20048;-46
2021/03/01 08:20:12;;;;;;;1.30;1.13;;;22.90;48.50;;;;;;5072764;28;20063;-44
2021/03/01 08:23:12;;;;;;;1.33;1.13;;;22.90;48.50;;;;;;5072642;28;20523;-47
2021/03/01 08:25:42;;;;;;;1.33;1.10;;;22.90;48.50;;;;;;5072536;28;20048;-44
2021/03/01 08:28:31;;;;;;;1.40;1.30;;;22.90;48.50;;;;;;5071587;28;20071;-48
2021/03/01 08:31:10;;;;;;;1.35;1.25;;;22.90;48.50;;;;;;5029794;28;20049;-45
2021/03/01 08:33:37;;;;;;;1.50;1.30;;;22.90;48.50;;;;;;5029741;28;20089;-44
2021/03/01 08:36:22;;;;;;;;;;;22.90;48.50;;;;;;5030664;28;20140;-46
2021/03/01 08:38:50;;;;;;;1.92;1.48;;;22.90;48.50;;;;;;5013820;28;19921;-44
2021/03/01 08:41:19;;;;;;;1.45;1.20;;;22.90;48.50;;;;;;5030009;28;20080;-45
2021/03/01 08:43:52;;;;;;;2.00;1.25;;;22.90;48.50;;;;;;5029178;28;20425;-46
2021/03/01 08:46:22;;;;;;;2.13;1.57;;;22.90;48.50;;;;;;5029919;28;20468;-46
2021/03/01 08:48:52;;;;;;;1.50;1.30;;;22.90;48.50;;;;;;5029635;28;20050;-46
2021/03/01 08:51:20;;;;;;;1.67;1.30;;;22.90;48.50;;;;;;5013605;28;20470;-44
2021/03/01 08:53:50;;;;;;;1.40;1.30;;;22.90;48.50;;;;;;5017372;28;20109;-44
2021/03/01 08:56:19;;;;;;;2.13;1.30;;;22.90;48.50;;;;;;5010187;28;20540;-45
2021/03/01 08:58:46;;;;;;;2.95;1.30;;;22.90;48.50;;;;;;5020636;28;20095;-46
2021/03/01 09:01:13;;;;;;;1.55;1.35;;;22.90;48.50;;;;;;5029768;28;20045;-45
2021/03/01 09:03:42;;;;;;;2.03;1.20;;;22.90;48.50;;;;;;5029389;28;20053;-45
2021/03/01 09:06:12;;;;;;;2.65;1.60;;;23.00;48.60;;;;;;5029819;28;20041;-44
2021/03/01 09:08:47;;;;;;;1.90;1.50;;;22.90;48.50;;;;;;5031500;28;20049;-46
2021/03/01 09:11:17;;;;;;;1.58;1.27;;;22.90;48.50;;;;;;5032393;28;20049;-45
2021/03/01 09:13:45;;;;;;;1.95;1.42;;;23.00;48.50;;;;;;5030904;28;20103;-45
2021/03/01 09:16:16;;;;;;;2.70;1.60;;;23.00;48.50;;;;;;5031965;28;20053;-49
2021/03/01 09:18:46;;;;;;;1.30;1.20;;;23.00;48.50;;;;;;5032173;28;20061;-46
2021/03/01 09:21:16;;;;;;;1.45;1.30;;;23.00;48.50;;;;;;5031894;28;20054;-46
2021/03/01 09:23:47;;;;;;;3.28;1.35;;;23.00;48.50;;;;;;5031911;28;20046;-50
2021/03/01 09:26:30;;;;;;;1.88;1.40;;;23.00;48.50;;;;;;5030796;28;20482;-50
2021/03/01 09:29:12;;;;;;;1.70;1.40;;;23.00;48.50;;;;;;5031407;28;20516;-46
2021/03/01 09:31:53;;;;;;;1.35;1.25;;;23.00;48.50;;;;;;5031861;28;20084;-48
2021/03/01 09:34:22;;;;;;;2.30;1.23;;;23.00;48.50;;;;;;5031619;28;20046;-46
2021/03/01 09:37:08;;;;;;;1.40;1.30;;;23.00;48.50;;;;;;5043530;28;20053;-45
2021/03/01 09:39:38;;;;;;;1.98;1.50;;;23.00;48.50;;;;;;5072008;28;20123;-44
2021/03/01 09:42:05;;;;;;;3.40;1.33;;;23.00;48.50;;;;;;5071852;28;20084;-48
2021/03/01 09:44:35;;;;;;;1.27;1.10;;;23.00;48.50;;;;;;5070693;28;20132;-45
2021/03/01 09:47:02;;;;;;;9.00;1.60;;;23.00;48.50;;;;;;5071468;28;20140;-45
2021/03/01 09:49:34;;;;;;;4.30;1.58;;;23.00;48.90;;;;;;5071381;28;20040;-47
2021/03/01 09:52:01;;;;;;;4.88;1.50;;;23.00;48.90;;;;;;5071862;28;20484;-44
2021/03/01 09:54:29;;;;;;;4.47;1.40;;;23.00;48.90;;;;;;5070264;28;20060;-47
2021/03/01 09:57:03;;;;;;;6.28;1.73;;;23.00;48.90;;;;;;5071398;28;20134;-44
2021/03/01 09:59:37;;;;;;;5.75;1.88;;;23.00;48.90;;;;;;5070992;28;20447;-46
2021/03/01 10:02:17;;;;;;;7.30;1.80;;;23.00;48.90;;;;;;5071530;28;20049;-47
2021/03/01 10:04:45;;;;;;;4.03;1.40;;;23.00;48.90;;;;;;5071319;28;20044;-46
2021/03/01 10:07:28;;;;;;;5.82;1.90;;;23.00;48.90;;;;;;5071446;28;20098;-45
2021/03/01 10:09:56;;;;;;;2.85;1.70;;;23.00;48.80;;;;;;5071499;28;20071;-44
2021/03/01 10:12:24;;;;;;;5.50;1.67;;;23.00;48.90;;;;;;5071709;28;20127;-46
2021/03/01 10:14:59;;;;;;;4.07;1.80;;;23.00;48.80;;;;;;5072040;28;20119;-46
2021/03/01 10:17:33;;;;;;;8.50;1.80;;;23.00;48.80;;;;;;5075059;28;20076;-45
2021/03/01 10:20:07;;;;;;;6.53;1.70;;;23.00;48.80;;;;;;5075227;28;20048;-45
2021/03/01 10:22:59;;;;;;;5.72;1.67;;;23.00;48.70;;;;;;5074863;28;20102;-47
2021/03/01 10:25:37;;;;;;;4.95;1.90;;;23.00;48.80;;;;;;5074822;28;20048;-45
2021/03/01 10:28:24;;;;;;;4.53;1.90;;;23.00;48.70;;;;;;5074983;28;20079;-46
2021/03/01 10:31:07;;;;;;;2.47;1.50;;;23.00;49.30;;;;;;5074442;28;20087;-44
2021/03/01 10:33:57;;;;;;;2.75;1.50;;;23.00;48.70;;;;;;5074702;28;20097;-45
2021/03/01 10:36:25;;;;;;;4.05;1.88;;;23.00;48.70;;;;;;5074957;28;20044;-44
2021/03/01 10:39:04;;;;;;;3.88;1.65;;;23.00;48.80;;;;;;5074533;28;20056;-45
2021/03/01 10:41:38;;;;;;;8.75;1.80;;;23.00;48.70;;;;;;5074844;28;20098;-47
2021/03/01 10:44:07;;;;;;;5.00;1.73;;;23.00;48.70;;;;;;5074010;28;20076;-45
2021/03/01 10:46:40;;;;;;;6.07;1.75;;;23.00;48.70;;;;;;5074713;28;20044;-50
2021/03/01 10:49:28;;;;;;;4.70;1.75;;;23.00;48.70;;;;;;5074430;28;20064;-44
2021/03/01 10:51:58;;;;;;;3.85;1.83;;;23.00;48.70;;;;;;5074513;28;20047;-44
2021/03/01 10:54:27;;;;;;;3.83;1.33;;;23.00;48.70;;;;;;5074273;28;20445;-49
2021/03/01 10:56:55;;;;;;;6.32;1.65;;;23.00;48.60;;;;;;5074193;28;20049;-45
2021/03/01 10:59:21;;;;;;;5.75;1.55;;;23.00;48.60;;;;;;5073134;28;20052;-46
2021/03/01 11:01:48;;;;;;;2.50;1.50;;;23.00;48.60;;;;;;5074129;28;20055;-47
2021/03/01 11:04:17;;;;;;;2.45;1.50;;;23.00;48.60;;;;;;5073225;28;20080;-44
2021/03/01 11:06:48;;;;;;;6.35;1.40;;;23.10;48.70;;;;;;5073997;28;20132;-43
2021/03/01 11:09:16;;;;;;;4.43;1.45;;;23.10;48.70;;;;;;5074281;28;20040;-44
2021/03/01 11:11:44;;;;;;;5.85;1.73;;;23.10;48.70;;;;;;5074086;28;20188;-46
2021/03/01 11:14:12;;;;;;;3.78;1.60;;;23.10;48.70;;;;;;5072846;28;20812;-46
2021/03/01 11:16:39;;;;;;;3.05;1.50;;;23.10;48.70;;;;;;5074108;28;20178;-47
2021/03/01 11:19:09;;;;;;;3.53;1.50;;;23.10;48.60;;;;;;5072762;28;20052;-44
2021/03/01 11:21:36;;;;;;;4.18;1.60;;;23.10;48.60;;;;;;5073782;28;20122;-46
2021/03/01 11:24:05;;;;;;;3.45;1.60;;;23.10;48.60;;;;;;5073879;28;20080;-43
2021/03/01 11:26:32;;;;;;;3.10;1.67;;;23.10;48.60;;;;;;5073288;28;20052;-44
2021/03/01 11:28:58;;;;;;;3.78;1.77;;;23.10;48.60;;;;;;5073498;28;20045;-44
2021/03/01 11:31:29;;;;;;;4.60;1.75;;;23.10;48.60;;;;;;5073406;28;20067;-47
2021/03/01 11:33:56;;;;;;;3.92;1.50;;;23.10;48.60;;;;;;5073847;28;20462;-45
2021/03/01 11:36:23;;;;;;;2.88;1.67;;;23.10;48.60;;;;;;5073420;28;20496;-43
2021/03/01 11:38:50;;;;;;;5.50;1.63;;;23.10;48.60;;;;;;5073675;28;20083;-44
2021/03/01 11:41:16;;;;;;;3.45;1.40;;;23.10;48.60;;;;;;5071992;28;20492;-45
2021/03/01 11:43:48;;;;;;;4.25;1.58;;;23.10;48.60;;;;;;5073787;28;20044;-44
2021/03/01 11:46:16;;;;;;;3.50;1.50;;;23.10;48.60;;;;;;5072794;28;20110;-44
2021/03/01 11:48:45;;;;;;;3.17;1.45;;;23.10;48.60;;;;;;5073058;28;20052;-45
2021/03/01 11:51:12;;;;;;;3.83;1.63;;;23.10;48.60;;;;;;5073178;28;20053;-45
2021/03/01 11:53:39;;;;;;;2.20;1.67;;;23.10;48.60;;;;;;5073415;28;20079;-44
2021/03/01 11:56:07;;;;;;;3.95;1.58;;;23.10;48.60;;;;;;5073032;28;20049;-45
2021/03/01 11:58:37;;;;;;;4.10;1.60;;;23.10;48.60;;;;;;5073260;28;20094;-49
2021/03/01 12:01:07;;;;;;;6.18;1.70;;;23.10;48.60;;;;;;5072458;28;20052;-45
2021/03/01 12:03:35;;;;;;;1.98;1.30;;;23.10;48.60;;;;;;5073174;28;20062;-44
2021/03/01 12:06:04;;;;;;;5.50;1.65;;;23.10;48.60;;;;;;5071991;28;20143;-46
2021/03/01 12:08:30;;;;;;;2.90;1.65;;;23.10;48.60;;;;;;5072847;28;20128;-45
2021/03/01 12:10:57;;;;;;;4.20;1.90;;;23.10;48.60;;;;;;5073063;28;20094;-44
2021/03/01 12:13:23;;;;;;;8.18;1.80;;;23.10;48.60;;;;;;5072684;28;20553;-43
2021/03/01 12:15:50;;;;;;;8.32;1.55;;;23.10;48.60;;;;;;5071952;28;20063;-44
2021/03/01 12:18:17;;;;;;;7.25;1.83;;;23.10;48.60;;;;;;5071551;28;20412;-43
2021/03/01 12:20:44;;;;;;;3.50;1.83;;;23.10;48.60;;;;;;5072248;28;20048;-44
2021/03/01 12:23:11;;;;;;;7.32;1.70;;;23.10;48.60;;;;;;5072490;28;20053;-50
2021/03/01 12:25:38;;;;;;;2.90;1.80;;;23.10;48.60;;;;;;5072196;28;20070;-43
2021/03/01 12:28:06;;;;;;;7.00;2.00;;;23.10;48.60;;;;;;5072243;28;20044;-44
2021/03/01 12:30:33;;;;;;;3.42;1.90;;;23.10;48.60;;;;;;5071258;28;20129;-44
2021/03/01 12:33:11;;;;;;;11.60;1.90;;;23.10;48.60;;;;;;5072202;28;20114;-44
2021/03/01 12:35:38;;;;;;;3.75;1.70;;;23.20;48.60;;;;;;5071981;28;20044;-44
2021/03/01 12:38:05;;;;;;;5.88;1.45;;;23.20;48.60;;;;;;5071149;28;20113;-44
2021/03/01 12:40:33;;;;;;;3.50;1.90;;;23.20;48.60;;;;;;5072027;28;20524;-44
2021/03/01 12:43:01;;;;;;;4.30;2.08;;;23.20;48.60;;;;;;5072378;28;20435;-50
2021/03/01 12:45:28;;;;;;;6.38;1.80;;;23.20;48.60;;;;;;5071012;28;20052;-44
2021/03/01 12:47:55;;;;;;;3.67;1.90;;;23.20;48.60;;;;;;5070875;28;20040;-44
2021/03/01 12:50:22;;;;;;;5.38;1.90;;;23.20;48.60;;;;;;5071922;28;20489;-44
2021/03/01 12:52:49;;;;;;;4.30;1.92;;;23.20;48.60;;;;;;5072248;28;20045;-43
2021/03/01 12:55:15;;;;;;;3.83;1.73;;;23.20;48.60;;;;;;5071750;28;20084;-45
2021/03/01 12:57:42;;;;;;;3.42;1.90;;;23.20;48.60;;;;;;5072165;28;20123;-43
2021/03/01 13:00:10;;;;;;;6.13;2.05;;;23.20;48.60;;;;;;5071170;28;20159;-44
2021/03/01 13:02:37;;;;;;;4.50;1.90;;;23.20;48.60;;;;;;5071809;28;20048;-45
2021/03/01 13:05:07;;;;;;;3.55;1.60;;;23.20;48.60;;;;;;5072045;28;20040;-44